Time;durP1;ratioP1;P1;durP2;ratioP2;P2;SDS_P1;SDS_P2;PMS_P1;PMS_P2;Temp;Humidity;BMP_temperature;BMP_pressure;BME280_temperature;BME280_humidity;BME280_pressure;Samples;Min_cycle;Max_cycle;Signal;HPM_P1;HPM_P2
2023/01/16 00:01:25;;;;;;;2.35;0.55;;;6.60;99.90;;;;;;10127085;28;20112;-66
2023/01/16 00:06:16;;;;;;;1.13;0.63;;;6.60;99.90;;;;;;10125140;28;20060;-67
2023/01/16 00:11:07;;;;;;;2.60;0.70;;;6.60;99.90;;;;;;10143378;28;20025;-68
2023/01/16 00:15:57;;;;;;;2.05;0.60;;;6.50;99.90;;;;;;10124730;28;20024;-68
2023/01/16 00:20:48;;;;;;;0.93;0.60;;;6.60;99.90;;;;;;10113672;28;20029;-69
2023/01/16 00:25:43;;;;;;;0.95;0.40;;;6.50;99.90;;;;;;10123488;28;20074;-68
2023/01/16 00:30:33;;;;;;;1.38;0.60;;;6.60;99.90;;;;;;10122264;28;20041;-68
2023/01/16 00:35:26;;;;;;;0.65;0.52;;;6.60;99.90;;;;;;10113702;28;20621;-68
2023/01/16 00:40:17;;;;;;;2.40;0.43;;;6.60;99.90;;;;;;10137964;28;20016;-67
2023/01/16 00:45:08;;;;;;;1.20;0.50;;;6.60;99.90;;;;;;10115634;28;20036;-66
2023/01/16 00:49:59;;;;;;;0.47;0.30;;;6.70;99.90;;;;;;10116757;28;20035;-68
2023/01/16 00:54:49;;;;;;;0.75;0.47;;;6.70;99.90;;;;;;10117687;28;20027;-67
2023/01/16 00:59:40;;;;;;;0.70;0.28;;;6.70;99.90;;;;;;10113430;28;20264;-67
2023/01/16 01:04:30;;;;;;;1.70;0.55;;;6.70;99.90;;;;;;10134092;28;20036;-69
2023/01/16 01:09:21;;;;;;;1.25;0.50;;;6.70;99.90;;;;;;10121668;28;20028;-67
2023/01/16 01:14:12;;;;;;;4.03;0.93;;;6.60;99.90;;;;;;10124166;28;20037;-66
2023/01/16 01:19:03;;;;;;;1.40;0.40;;;6.60;99.90;;;;;;10124915;28;20020;-67
2023/01/16 01:23:55;;;;;;;1.20;0.50;;;6.60;99.90;;;;;;10125167;28;20124;-67
2023/01/16 01:28:46;;;;;;;1.63;0.40;;;6.50;99.90;;;;;;10125915;28;20020;-67
2023/01/16 01:33:38;;;;;;;0.85;0.50;;;6.50;99.90;;;;;;10109558;28;20067;-68
2023/01/16 01:38:29;;;;;;;1.15;0.57;;;6.60;99.90;;;;;;10134934;28;20587;-67
2023/01/16 01:43:20;;;;;;;1.77;0.50;;;6.60;99.90;;;;;;10123027;28;20044;-67
2023/01/16 01:48:13;;;;;;;1.75;0.40;;;6.60;99.90;;;;;;10122168;28;20024;-68
2023/01/16 01:53:15;;;;;;;0.57;0.30;;;6.50;99.90;;;;;;10111245;28;20029;-68
2023/01/16 01:58:06;;;;;;;1.48;0.40;;;6.50;99.90;;;;;;10123128;28;20036;-68
2023/01/16 02:03:10;;;;;;;1.35;0.80;;;6.40;99.90;;;;;;10111192;28;20033;-68
2023/01/16 02:08:02;;;;;;;0.40;0.40;;;6.40;99.90;;;;;;10120208;28;20479;-68
2023/01/16 02:12:53;;;;;;;1.95;0.50;;;6.40;99.90;;;;;;10121408;28;20064;-67
2023/01/16 02:23:19;;;;;;;0.93;0.40;;;6.30;99.90;;;;;;10113150;28;20035;-66
2023/01/16 02:28:45;;;;;;;3.30;0.50;;;6.20;99.90;;;;;;10125191;28;20077;-67
2023/01/16 02:34:10;;;;;;;0.57;0.40;;;6.10;99.90;;;;;;10083481;28;20571;-67
2023/01/16 02:39:22;;;;;;;0.65;0.32;;;6.10;99.90;;;;;;10122231;28;20033;-67
2023/01/16 02:44:36;;;;;;;2.75;0.68;;;6.00;99.90;;;;;;10113420;28;20048;-67
2023/01/16 02:49:40;;;;;;;0.70;0.50;;;6.10;99.90;;;;;;10120985;28;20390;-67
2023/01/16 02:54:44;;;;;;;0.40;0.40;;;6.00;99.90;;;;;;10121789;28;20060;-67
2023/01/16 02:59:35;;;;;;;1.05;0.43;;;6.00;99.90;;;;;;10116369;28;20028;-67
2023/01/16 03:04:43;;;;;;;1.25;0.50;;;5.90;99.90;;;;;;10133346;28;20291;-67
2023/01/16 03:09:42;;;;;;;1.45;0.43;;;5.90;99.90;;;;;;10124627;28;20397;-67
2023/01/16 03:14:46;;;;;;;0.63;0.43;;;5.90;99.90;;;;;;10127940;28;20068;-67
2023/01/16 03:19:54;;;;;;;3.53;0.50;;;5.80;99.90;;;;;;10104412;28;20086;-66
2023/01/16 03:25:27;;;;;;;1.30;0.38;;;5.80;99.90;;;;;;10128002;28;20047;-67
2023/01/16 03:30:48;;;;;;;0.98;0.40;;;5.80;99.90;;;;;;10115760;28;20790;-66
2023/01/16 03:35:53;;;;;;;0.90;0.47;;;5.80;99.90;;;;;;10135286;28;20033;-66
2023/01/16 03:40:46;;;;;;;0.50;0.40;;;5.80;99.90;;;;;;10116973;28;20039;-66
2023/01/16 03:45:54;;;;;;;0.98;0.40;;;5.80;99.90;;;;;;10128806;28;20020;-66
2023/01/16 03:50:57;;;;;;;1.17;0.40;;;5.70;99.90;;;;;;10115846;28;20536;-67
2023/01/16 03:56:12;;;;;;;1.73;0.40;;;5.80;99.90;;;;;;10109001;28;20021;-66
2023/01/16 04:01:20;;;;;;;1.52;0.70;;;5.90;99.90;;;;;;10117893;28;20033;-68
2023/01/16 04:06:19;;;;;;;1.30;0.40;;;5.80;99.90;;;;;;10130365;28;20052;-67
2023/01/16 04:11:12;;;;;;;1.17;0.45;;;5.90;99.90;;;;;;10134606;28;20031;-67
2023/01/16 04:16:08;;;;;;;2.92;0.57;;;6.00;99.90;;;;;;10134943;28;20064;-68
2023/01/16 04:20:59;;;;;;;0.30;0.30;;;6.00;99.90;;;;;;10125573;28;20097;-67
2023/01/16 04:25:50;;;;;;;0.55;0.28;;;6.00;99.90;;;;;;10129206;28;20178;-67
2023/01/16 04:30:41;;;;;;;0.93;0.40;;;5.90;99.90;;;;;;10128679;28;20052;-67
2023/01/16 04:35:33;;;;;;;0.40;0.38;;;6.00;99.90;;;;;;10122775;28;20041;-68
2023/01/16 04:40:24;;;;;;;0.30;0.22;;;6.00;99.90;;;;;;10126275;28;20029;-68
2023/01/16 04:45:15;;;;;;;0.70;0.35;;;6.00;99.90;;;;;;10114108;28;20092;-67
2023/01/16 04:50:06;;;;;;;1.73;0.30;;;6.00;99.90;;;;;;10117146;28;20032;-68
2023/01/16 04:54:57;;;;;;;0.47;0.22;;;6.00;99.90;;;;;;10125960;28;20473;-68
2023/01/16 04:59:47;;;;;;;0.43;0.30;;;6.10;99.90;;;;;;10124870;28;20077;-67
2023/01/16 05:04:38;;;;;;;0.25;0.15;;;6.20;99.90;;;;;;10134303;28;20493;-68
2023/01/16 05:09:28;;;;;;;0.88;0.70;;;6.20;99.90;;;;;;10133001;28;20112;-68
2023/01/16 05:14:19;;;;;;;1.25;0.80;;;6.10;99.90;;;;;;10108193;28;20056;-68
2023/01/16 05:19:10;;;;;;;0.80;0.40;;;6.20;99.90;;;;;;10112277;28;20075;-67
2023/01/16 05:24:01;;;;;;;2.17;0.50;;;6.30;99.90;;;;;;10128764;28;20437;-68
2023/01/16 05:28:52;;;;;;;0.43;0.28;;;6.30;99.90;;;;;;10124655;28;20048;-67
2023/01/16 05:33:43;;;;;;;2.15;1.05;;;6.30;99.90;;;;;;10115147;28;20070;-67
2023/01/16 05:38:33;;;;;;;1.23;0.40;;;6.30;99.90;;;;;;10106509;28;20059;-68
2023/01/16 05:43:26;;;;;;;0.40;0.10;;;6.40;99.90;;;;;;10110577;28;20077;-68
2023/01/16 05:48:16;;;;;;;1.30;0.30;;;6.40;99.90;;;;;;10127615;28;20501;-67
2023/01/16 05:53:07;;;;;;;1.45;0.25;;;6.40;99.90;;;;;;10121747;28;20436;-67
2023/01/16 05:57:58;;;;;;;0.90;0.40;;;6.40;99.90;;;;;;10124552;28;20514;-67
2023/01/16 06:02:48;;;;;;;0.10;0.10;;;6.50;99.90;;;;;;10131167;28;20037;-67
2023/01/16 06:07:41;;;;;;;0.40;0.38;;;6.50;99.90;;;;;;10132738;28;20029;-67
2023/01/16 06:12:32;;;;;;;1.17;0.17;;;6.60;99.90;;;;;;10133997;28;20031;-67
2023/01/16 06:17:23;;;;;;;1.00;0.40;;;6.60;99.90;;;;;;10104448;28;20036;-68
2023/01/16 06:22:14;;;;;;;0.75;0.75;;;6.60;99.90;;;;;;10123515;28;20048;-68
2023/01/16 06:27:04;;;;;;;0.68;0.28;;;6.60;99.90;;;;;;10117008;28;20061;-66
2023/01/16 06:31:55;;;;;;;1.58;0.73;;;6.60;99.90;;;;;;10123133;28;20056;-68
2023/01/16 06:36:47;;;;;;;0.57;0.38;;;6.60;99.90;;;;;;10109528;28;20024;-67
2023/01/16 06:41:38;;;;;;;0.10;0.10;;;6.70;99.90;;;;;;10120563;28;20191;-68
2023/01/16 06:46:29;;;;;;;0.50;0.50;;;6.80;99.90;;;;;;10131935;28;20139;-68
2023/01/16 06:51:19;;;;;;;1.52;0.40;;;6.80;99.90;;;;;;10111999;28;20025;-67
2023/01/16 06:56:10;;;;;;;0.47;0.30;;;6.80;99.90;;;;;;10141435;28;20024;-68
2023/01/16 07:01:00;;;;;;;1.88;0.40;;;6.90;99.90;;;;;;10121125;28;20033;-67
2023/01/16 07:05:51;;;;;;;0.82;0.20;;;7.00;99.90;;;;;;10129345;28;20552;-69
2023/01/16 07:10:42;;;;;;;0.85;0.45;;;7.00;99.90;;;;;;10128489;28;20478;-67
2023/01/16 07:25:59;;;;;;;0.75;0.32;;;7.20;99.90;;;;;;10132895;28;20415;-67
2023/01/16 07:30:50;;;;;;;0.80;0.30;;;7.10;99.90;;;;;;10122937;28;20052;-67
2023/01/16 07:35:41;;;;;;;3.75;0.30;;;7.20;99.90;;;;;;10118778;28;20117;-63
2023/01/16 07:40:31;;;;;;;1.20;0.50;;;7.20;99.90;;;;;;10137477;28;20017;-64
2023/01/16 07:45:22;;;;;;;0.38;0.38;;;7.20;99.90;;;;;;10120766;28;20089;-65
2023/01/16 07:50:13;;;;;;;0.35;0.28;;;7.20;99.90;;;;;;10127245;28;20386;-64
2023/01/16 07:55:04;;;;;;;0.20;0.20;;;7.30;99.90;;;;;;10133552;28;20041;-65
2023/01/16 07:59:54;;;;;;;0.55;0.43;;;7.30;99.90;;;;;;10131490;28;20101;-66
2023/01/16 08:04:45;;;;;;;0.20;0.10;;;7.40;99.90;;;;;;10128119;28;20558;-66
2023/01/16 08:09:36;;;;;;;2.45;0.40;;;7.40;99.90;;;;;;10129721;28;20074;-67
2023/01/16 08:14:27;;;;;;;0.75;0.20;;;7.50;99.90;;;;;;10121761;28;20031;-68
2023/01/16 08:19:17;;;;;;;0.68;0.45;;;7.50;99.90;;;;;;10088889;28;20025;-67
2023/01/16 08:24:09;;;;;;;0.40;0.30;;;7.50;99.90;;;;;;10138168;28;20686;-63
2023/01/16 08:29:02;;;;;;;1.58;0.30;;;7.60;99.90;;;;;;10115495;28;20107;-64
2023/01/16 08:33:52;;;;;;;0.30;0.30;;;7.60;99.90;;;;;;10115372;28;20497;-65
2023/01/16 08:38:43;;;;;;;0.40;0.20;;;7.50;99.90;;;;;;10128618;28;20029;-66
2023/01/16 08:53:55;;;;;;;0.47;0.30;;;7.40;99.90;;;;;;9978237;28;20080;-63
2023/01/16 08:58:45;;;;;;;0.10;0.10;;;7.40;99.90;;;;;;9978938;28;20497;-63
2023/01/16 09:03:36;;;;;;;0.52;0.30;;;7.50;99.90;;;;;;9981087;28;20046;-65
2023/01/16 09:08:27;;;;;;;0.57;0.30;;;7.40;99.90;;;;;;9978211;28;20026;-64
2023/01/16 09:18:26;;;;;;;0.85;0.30;;;7.50;99.90;;;;;;9987824;28;20037;-64
2023/01/16 09:23:17;;;;;;;0.20;0.20;;;7.50;99.90;;;;;;9979444;28;20037;-63
2023/01/16 09:28:08;;;;;;;0.65;0.50;;;7.60;99.90;;;;;;9974830;28;20126;-63
2023/01/16 09:32:58;;;;;;;0.63;0.30;;;7.70;99.90;;;;;;9977570;28;20626;-63
2023/01/16 09:37:49;;;;;;;1.30;0.45;;;7.70;99.90;;;;;;9992256;28;20018;-62
2023/01/16 09:48:16;;;;;;;0.15;0.15;;;7.70;99.90;;;;;;9978164;28;20096;-59
2023/01/16 09:58:36;;;;;;;0.20;0.20;;;7.80;99.90;;;;;;9985045;28;20053;-61
2023/01/16 10:03:27;;;;;;;0.50;0.30;;;7.80;99.90;;;;;;9987698;28;20034;-60
2023/01/16 10:08:37;;;;;;;0.77;0.35;;;7.80;99.90;;;;;;9980626;28;20042;-63
2023/01/16 10:13:31;;;;;;;0.68;0.43;;;7.80;99.90;;;;;;9980904;28;20093;-62
2023/01/16 10:18:27;;;;;;;1.33;1.23;;;7.90;99.90;;;;;;9981220;28;20030;-63
2023/01/16 10:23:42;;;;;;;0.90;0.30;;;7.90;99.90;;;;;;9986319;28;20065;-66
2023/01/16 10:28:33;;;;;;;0.85;0.65;;;8.00;99.90;;;;;;9990457;28;20030;-64
2023/01/16 10:33:36;;;;;;;1.88;0.32;;;8.00;99.90;;;;;;9992849;28;20084;-66
2023/01/16 10:38:45;;;;;;;0.63;0.32;;;8.00;99.90;;;;;;9998075;28;20018;-59
2023/01/16 10:49:27;;;;;;;0.65;0.30;;;8.20;99.90;;;;;;10009784;28;20065;-65
2023/01/16 10:54:18;;;;;;;0.40;0.30;;;8.10;99.90;;;;;;9985938;28;20061;-64
2023/01/16 10:59:12;;;;;;;1.90;0.30;;;8.10;99.90;;;;;;9982042;28;20516;-63
2023/01/16 11:04:05;;;;;;;0.95;0.28;;;8.20;99.90;;;;;;9995150;28;20269;-61
2023/01/16 11:09:08;;;;;;;1.48;0.25;;;8.30;99.90;;;;;;9983999;28;20109;-60
2023/01/16 11:19:27;;;;;;;0.75;0.20;;;8.60;99.90;;;;;;9977262;28;20522;-63
2023/01/16 11:24:31;;;;;;;0.65;0.43;;;8.70;99.90;;;;;;9975031;28;20647;-63
2023/01/16 11:29:24;;;;;;;0.17;0.15;;;8.80;99.90;;;;;;9982377;28;20015;-65
2023/01/16 11:34:15;;;;;;;0.10;0.10;;;8.80;99.90;;;;;;9975876;28;20559;-61
2023/01/16 11:39:16;;;;;;;1.08;0.38;;;8.70;99.90;;;;;;9976349;28;20102;-63
2023/01/16 11:49:40;;;;;;;1.83;0.15;;;8.80;99.90;;;;;;9996276;28;20041;-63
2023/01/16 11:54:34;;;;;;;0.40;0.40;;;8.90;99.90;;;;;;9982875;28;20034;-62
2023/01/16 11:59:28;;;;;;;0.73;0.25;;;9.20;99.90;;;;;;9981167;28;20586;-60
2023/01/16 12:04:26;;;;;;;0.45;0.20;;;9.20;99.90;;;;;;9987686;28;20026;-61
2023/01/16 12:09:26;;;;;;;0.82;0.40;;;9.30;99.90;;;;;;9976120;28;20077;-67
2023/01/16 12:14:31;;;;;;;0.10;0.10;;;9.40;99.90;;;;;;9977247;28;20508;-64
2023/01/16 12:19:22;;;;;;;2.45;0.98;;;9.40;99.90;;;;;;9978788;28;20469;-64
2023/01/16 12:24:40;;;;;;;0.50;0.30;;;9.50;99.90;;;;;;9977947;28;20026;-55
2023/01/16 12:29:40;;;;;;;0.00;0.00;;;9.50;99.90;;;;;;9983427;28;20030;-57
2023/01/16 12:34:52;;;;;;;0.85;0.20;;;9.50;99.90;;;;;;9979765;28;20038;-55
2023/01/16 12:40:01;;;;;;;0.20;0.20;;;9.40;99.90;;;;;;9978331;28;20470;-56
2023/01/16 12:45:04;;;;;;;2.38;0.40;;;9.60;99.90;;;;;;9980316;28;20441;-55
2023/01/16 12:50:07;;;;;;;0.10;0.10;;;9.60;99.90;;;;;;9974389;28;20019;-54
2023/01/16 12:55:19;;;;;;;0.32;0.28;;;9.70;99.90;;;;;;9978784;28;20026;-59
2023/01/16 13:00:14;;;;;;;0.73;0.22;;;9.60;99.90;;;;;;9979386;28;20030;-58
2023/01/16 13:05:18;;;;;;;0.20;0.20;;;9.40;99.90;;;;;;9987671;28;20038;-61
2023/01/16 13:15:47;;;;;;;0.10;0.10;;;9.00;99.90;;;;;;9972530;28;20061;-62
2023/01/16 13:20:38;;;;;;;0.60;0.30;;;9.00;99.90;;;;;;9963032;28;20057;-60
2023/01/16 13:25:36;;;;;;;0.52;0.35;;;9.00;99.90;;;;;;9977733;28;20038;-55
2023/01/16 13:30:27;;;;;;;0.90;0.30;;;9.10;99.90;;;;;;9977920;28;20555;-57
2023/01/16 13:35:48;;;;;;;0.30;0.20;;;9.40;99.90;;;;;;9979271;28;20113;-54
2023/01/16 13:40:48;;;;;;;0.32;0.30;;;9.50;99.90;;;;;;9980453;28;20043;-55
2023/01/16 13:45:50;;;;;;;0.50;0.20;;;9.30;99.90;;;;;;9977746;28;20046;-51
2023/01/16 13:50:50;;;;;;;0.35;0.20;;;9.20;99.90;;;;;;9978032;28;20026;-53
2023/01/16 13:55:43;;;;;;;0.10;0.10;;;9.10;99.90;;;;;;9965197;28;20186;-54
2023/01/16 14:00:35;;;;;;;0.30;0.30;;;8.90;99.90;;;;;;9984594;28;20033;-54
2023/01/16 14:05:38;;;;;;;0.20;0.20;;;8.70;99.90;;;;;;9986812;28;20034;-53
2023/01/16 14:10:39;;;;;;;1.10;0.43;;;8.60;99.90;;;;;;9974899;28;20049;-59
2023/01/16 14:21:11;;;;;;;0.77;0.57;;;8.50;99.90;;;;;;9977082;28;20128;-55
2023/01/16 14:26:04;;;;;;;0.95;0.20;;;8.40;99.90;;;;;;9976863;28;20120;-59
2023/01/16 14:30:55;;;;;;;0.55;0.52;;;8.30;99.90;;;;;;9976829;28;20019;-55
2023/01/16 14:35:55;;;;;;;0.88;0.60;;;8.20;99.90;;;;;;9981015;28;20030;-55
2023/01/16 14:56:50;;;;;;;2.28;0.35;;;7.80;99.90;;;;;;9977608;28;20044;-59
2023/01/16 15:02:20;;;;;;;0.88;0.38;;;7.80;99.90;;;;;;9987190;28;20117;-57
2023/01/16 15:07:14;;;;;;;0.30;0.30;;;7.70;99.90;;;;;;9983177;28;20053;-55
2023/01/16 15:12:18;;;;;;;0.90;0.40;;;7.50;99.90;;;;;;9983121;28;20031;-54
2023/01/16 15:22:41;;;;;;;0.25;0.17;;;7.30;99.90;;;;;;9960678;28;20021;-56
2023/01/16 15:27:36;;;;;;;0.55;0.22;;;7.30;99.90;;;;;;9979830;28;20053;-58
2023/01/16 15:32:27;;;;;;;0.47;0.27;;;7.20;99.90;;;;;;9983055;28;20019;-55
2023/01/16 15:37:22;;;;;;;0.77;0.40;;;7.10;99.90;;;;;;9991452;28;20030;-57
2023/01/16 15:47:55;;;;;;;2.25;0.90;;;7.00;99.90;;;;;;9982487;28;20092;-59
2023/01/16 15:52:46;;;;;;;1.00;0.30;;;7.00;99.90;;;;;;9981388;28;20041;-59
2023/01/16 15:57:36;;;;;;;0.38;0.38;;;7.00;99.90;;;;;;9988548;28;20048;-60
2023/01/16 16:02:31;;;;;;;3.10;1.20;;;6.90;99.90;;;;;;9989129;28;20034;-52
2023/01/16 16:07:23;;;;;;;0.70;0.38;;;6.90;99.90;;;;;;9981541;28;20060;-52
2023/01/16 16:12:14;;;;;;;0.20;0.20;;;6.90;99.90;;;;;;9981207;28;20033;-52
2023/01/16 16:22:48;;;;;;;1.08;0.57;;;6.90;99.90;;;;;;9981597;28;20125;-55
2023/01/16 16:27:41;;;;;;;1.17;0.77;;;6.90;99.90;;;;;;9981367;28;20131;-54
2023/01/16 16:32:36;;;;;;;0.28;0.25;;;6.80;99.90;;;;;;9981093;28;20081;-60
2023/01/16 16:37:27;;;;;;;0.82;0.50;;;6.80;99.90;;;;;;9989479;28;20022;-55
2023/01/16 16:42:26;;;;;;;0.60;0.40;;;6.60;99.90;;;;;;9979231;28;20050;-54
2023/01/16 16:47:21;;;;;;;0.50;0.38;;;6.60;99.90;;;;;;9978456;28;20466;-57
2023/01/16 16:52:27;;;;;;;0.20;0.20;;;6.60;99.90;;;;;;9976014;28;20065;-56
2023/01/16 16:57:18;;;;;;;0.60;0.40;;;6.60;99.90;;;;;;9977388;28;20049;-55
2023/01/16 17:02:09;;;;;;;1.08;0.40;;;6.40;99.90;;;;;;9976794;28;20030;-56
2023/01/16 17:07:00;;;;;;;0.35;0.20;;;6.40;99.90;;;;;;9978356;28;20309;-60
2023/01/16 17:11:51;;;;;;;0.43;0.38;;;6.40;99.90;;;;;;9977527;28;20310;-55
2023/01/16 17:16:42;;;;;;;1.33;0.35;;;6.30;99.90;;;;;;9977689;28;20517;-56
2023/01/16 17:21:33;;;;;;;0.20;0.20;;;6.30;99.90;;;;;;9977479;28;20026;-57
2023/01/16 17:26:24;;;;;;;1.40;0.50;;;6.30;99.90;;;;;;9977433;28;20026;-56
2023/01/16 17:31:18;;;;;;;1.70;0.50;;;6.30;99.90;;;;;;9981679;28;20028;-56
2023/01/16 17:36:19;;;;;;;1.58;0.30;;;6.40;99.90;;;;;;9984284;28;20093;-60
2023/01/16 17:46:32;;;;;;;0.40;0.20;;;6.60;99.90;;;;;;9978128;28;20133;-61
2023/01/16 17:51:23;;;;;;;0.30;0.20;;;6.60;99.90;;;;;;9978276;28;20149;-60
2023/01/16 17:56:16;;;;;;;1.08;0.70;;;6.80;99.90;;;;;;9969934;28;20242;-60
2023/01/16 18:01:06;;;;;;;3.28;0.77;;;6.90;99.90;;;;;;9977647;28;20394;-59
2023/01/16 18:06:08;;;;;;;1.58;1.10;;;6.90;99.90;;;;;;9978976;28;20026;-56
2023/01/16 18:17:20;;;;;;;0.85;0.50;;;6.90;99.90;;;;;;9974277;28;20026;-63
2023/01/16 18:26:32;;;;;;;2.88;0.73;;;6.80;99.90;;;;;;9983359;28;20037;-58
2023/01/16 18:31:23;;;;;;;2.67;0.82;;;6.70;99.90;;;;;;9985115;28;20041;-60
2023/01/16 18:36:14;;;;;;;0.52;0.30;;;6.80;99.90;;;;;;9977164;28;20034;-60
2023/01/16 19:01:57;;;;;;;2.40;0.47;;;6.90;99.90;;;;;;9989385;28;20037;-63
2023/01/16 19:06:48;;;;;;;1.67;0.75;;;7.00;99.90;;;;;;9983939;28;20131;-60
2023/01/16 19:11:39;;;;;;;0.93;0.40;;;7.00;99.90;;;;;;9984089;28;20515;-61
2023/01/16 19:17:03;;;;;;;3.40;0.82;;;6.90;99.90;;;;;;9983373;28;20034;-67
2023/01/16 19:21:46;;;;;;;2.55;0.75;;;6.90;99.90;;;;;;9982168;28;20112;-66
2023/01/16 19:26:44;;;;;;;2.67;0.30;;;6.90;99.90;;;;;;9983067;28;20030;-63
2023/01/16 19:31:35;;;;;;;4.85;0.80;;;6.90;99.90;;;;;;9982893;28;20125;-59
2023/01/16 19:36:26;;;;;;;0.80;0.80;;;7.00;99.90;;;;;;9983617;28;20037;-58
2023/01/16 19:46:44;;;;;;;1.63;0.70;;;6.90;99.90;;;;;;10013515;28;20105;-62
2023/01/16 19:51:34;;;;;;;3.28;0.50;;;6.80;99.90;;;;;;9984871;28;20022;-60
2023/01/16 19:56:25;;;;;;;1.80;0.75;;;6.80;99.90;;;;;;9978327;28;20056;-63
2023/01/16 20:01:16;;;;;;;1.77;0.75;;;6.70;99.90;;;;;;10006913;28;20042;-60
2023/01/16 20:06:07;;;;;;;2.78;0.70;;;6.50;99.90;;;;;;9989937;28;20512;-57
2023/01/16 20:10:58;;;;;;;0.47;0.45;;;6.20;99.90;;;;;;9984502;28;20449;-61
2023/01/16 20:15:49;;;;;;;2.08;0.82;;;6.10;99.90;;;;;;10007258;28;20507;-58
2023/01/16 20:20:40;;;;;;;3.08;1.15;;;6.10;99.90;;;;;;9978746;28;20026;-59
2023/01/16 20:25:30;;;;;;;1.65;0.88;;;6.20;99.90;;;;;;9986652;28;20055;-55
2023/01/16 20:35:30;;;;;;;1.75;0.77;;;6.20;99.90;;;;;;9991294;28;20033;-62
2023/01/16 20:40:21;;;;;;;1.30;0.90;;;6.30;99.90;;;;;;9979921;28;20065;-60
2023/01/16 20:50:21;;;;;;;1.45;0.68;;;6.40;99.90;;;;;;9995777;28;20033;-59
2023/01/16 20:55:12;;;;;;;1.38;0.60;;;6.40;99.90;;;;;;9973807;28;20036;-60
2023/01/16 21:00:04;;;;;;;0.88;0.60;;;6.40;99.90;;;;;;9979001;28;20029;-57
2023/01/16 21:04:54;;;;;;;1.48;1.15;;;6.40;99.90;;;;;;9990488;28;20022;-56
2023/01/16 21:09:45;;;;;;;3.13;0.70;;;6.30;99.90;;;;;;9999018;28;20026;-57
2023/01/16 21:14:37;;;;;;;1.83;0.40;;;5.90;99.90;;;;;;9994895;28;20400;-60
2023/01/16 21:24:38;;;;;;;0.40;0.30;;;5.30;99.90;;;;;;9983862;28;20100;-60
2023/01/16 21:29:29;;;;;;;2.08;0.50;;;5.30;99.90;;;;;;9993160;28;20026;-56
2023/01/16 21:34:20;;;;;;;4.72;0.93;;;5.20;99.90;;;;;;9998091;28;20026;-58
2023/01/16 21:39:11;;;;;;;0.82;0.57;;;5.10;99.90;;;;;;9986975;28;20376;-60
2023/01/16 21:49:11;;;;;;;2.33;0.90;;;5.20;99.90;;;;;;10002160;28;20029;-60
2023/01/16 21:54:01;;;;;;;1.45;0.60;;;5.10;99.90;;;;;;9973812;28;20032;-59
2023/01/16 21:58:54;;;;;;;0.40;0.40;;;5.30;99.90;;;;;;9996956;28;20030;-62
2023/01/16 22:03:45;;;;;;;0.80;0.40;;;5.30;99.90;;;;;;9993694;28;20065;-60
2023/01/16 22:08:40;;;;;;;1.70;0.60;;;5.40;99.90;;;;;;10002910;28;20038;-61
2023/01/16 22:18:40;;;;;;;1.73;0.80;;;5.50;99.90;;;;;;9993818;28;20057;-60
2023/01/16 22:23:31;;;;;;;0.55;0.55;;;5.40;99.90;;;;;;9982111;28;20378;-63
2023/01/16 22:28:22;;;;;;;0.32;0.30;;;5.30;99.90;;;;;;9983558;28;20030;-60
2023/01/16 22:33:13;;;;;;;3.70;0.75;;;4.90;99.90;;;;;;9996244;28;20055;-60
2023/01/16 22:38:04;;;;;;;1.20;0.50;;;4.60;99.90;;;;;;9984517;28;20113;-59
2023/01/16 22:46:21;;;;;;;2.17;0.60;;;4.40;99.90;;;;;;10005151;28;20054;-60
2023/01/16 22:48:06;;;;;;;0.85;0.52;;;4.30;99.90;;;;;;9992795;28;20405;-61
2023/01/16 22:52:56;;;;;;;0.40;0.35;;;4.20;99.90;;;;;;9990324;28;20034;-58
2023/01/16 22:57:48;;;;;;;0.57;0.30;;;4.20;99.90;;;;;;9992697;28;20026;-57
2023/01/16 23:02:39;;;;;;;0.60;0.35;;;4.10;99.90;;;;;;9972517;28;20477;-61
2023/01/16 23:07:30;;;;;;;0.85;0.57;;;4.20;99.90;;;;;;10004136;28;20033;-60
2023/01/16 23:12:20;;;;;;;0.80;0.35;;;4.30;99.90;;;;;;9976360;28;20113;-60
2023/01/16 23:17:11;;;;;;;0.50;0.32;;;4.50;99.90;;;;;;9975949;28;20033;-58
2023/01/16 23:22:02;;;;;;;0.85;0.55;;;4.60;99.90;;;;;;9976435;28;20555;-62
2023/01/16 23:26:54;;;;;;;0.85;0.70;;;4.50;99.90;;;;;;9985465;28;20145;-57
2023/01/16 23:31:46;;;;;;;1.02;0.60;;;4.50;99.90;;;;;;9996231;28;20458;-60
2023/01/16 23:36:38;;;;;;;1.60;0.75;;;4.50;99.90;;;;;;9996588;28;20420;-60
2023/01/16 23:46:40;;;;;;;1.38;0.68;;;4.60;99.90;;;;;;9998811;28;20193;-59
2023/01/16 23:51:31;;;;;;;0.98;0.60;;;4.70;99.90;;;;;;10003355;28;20030;-59
2023/01/16 23:56:22;;;;;;;2.47;0.93;;;4.60;99.90;;;;;;9996269;28;20109;-58
